Time;durP1;ratioP1;P1;durP2;ratioP2;P2;SDS_P1;SDS_P2;PMS_P1;PMS_P2;Temp;Humidity;BMP_temperature;BMP_pressure;BME280_temperature;BME280_humidity;BME280_pressure;Samples;Min_cycle;Max_cycle;Signal;HPM_P1;HPM_P2
2022/04/20 00:00:34;;;;;;;;;;;25.50;38.20;;;;;;5072611;28;973;-43
2022/04/20 00:03:01;;;;;;;;;;;25.50;38.10;;;;;;5072946;28;972;-44
2022/04/20 00:05:27;;;;;;;;;;;25.50;38.10;;;;;;5075496;28;1039;-44
2022/04/20 00:07:54;;;;;;;;;;;25.50;38.20;;;;;;5074696;28;973;-45
2022/04/20 00:10:21;;;;;;;;;;;25.40;38.20;;;;;;5074613;28;998;-44
2022/04/20 00:12:47;;;;;;;;;;;25.40;38.30;;;;;;5073986;28;1008;-46
2022/04/20 00:15:14;;;;;;;;;;;25.40;38.20;;;;;;5074971;28;860;-46
2022/04/20 00:17:42;;;;;;;;;;;25.40;38.20;;;;;;5076621;28;1975;-45
2022/04/20 00:20:09;;;;;;;;;;;25.40;39.40;;;;;;5076243;28;1010;-44
2022/04/20 00:22:36;;;;;;;;;;;25.40;38.30;;;;;;5074927;28;968;-44
2022/04/20 00:25:03;;;;;;;;;;;25.40;38.40;;;;;;5076335;28;984;-45
2022/04/20 00:27:32;;;;;;;;;;;25.40;38.20;;;;;;5074134;28;874;-43
2022/04/20 00:29:59;;;;;;;;;;;25.40;38.30;;;;;;5075269;28;968;-44
2022/04/20 00:32:26;;;;;;;;;;;25.40;38.20;;;;;;5074943;28;972;-44
2022/04/20 00:34:54;;;;;;;;;;;25.40;38.20;;;;;;5074629;28;1003;-45
2022/04/20 00:37:21;;;;;;;;;;;25.40;38.20;;;;;;5074688;28;1905;-45
2022/04/20 00:39:47;;;;;;;;;;;25.30;38.30;;;;;;5074948;28;1088;-46
2022/04/20 00:42:14;;;;;;;;;;;25.40;38.40;;;;;;5076360;28;1015;-42
2022/04/20 00:44:41;;;;;;;;;;;25.40;38.40;;;;;;5074989;28;1062;-44
2022/04/20 00:47:08;;;;;;;;;;;25.30;38.40;;;;;;5074980;28;941;-43
2022/04/20 00:49:35;;;;;;;;;;;25.30;38.50;;;;;;5075235;28;889;-46
2022/04/20 00:52:04;;;;;;;;;;;25.30;38.30;;;;;;5075574;28;920;-46
2022/04/20 00:54:31;;;;;;;;;;;25.40;38.40;;;;;;5075433;28;952;-45
2022/04/20 00:56:57;;;;;;;;;;;25.40;38.30;;;;;;5075044;28;1906;-45
2022/04/20 00:59:26;;;;;;;;;;;25.30;38.40;;;;;;5074465;28;1003;-45
2022/04/20 01:01:52;;;;;;;;;;;25.40;38.30;;;;;;5074436;28;1167;-44
2022/04/20 01:04:21;;;;;;;;;;;25.50;38.20;;;;;;5073323;28;913;-43
2022/04/20 01:06:49;;;;;;;;;;;25.40;38.40;;;;;;5073541;28;1021;-43
2022/04/20 01:09:17;;;;;;;;;;;25.40;38.40;;;;;;5074027;28;936;-46
2022/04/20 01:11:44;;;;;;;;;;;25.40;38.30;;;;;;5074391;28;1014;-44
2022/04/20 01:14:11;;;;;;;;;;;25.40;38.50;;;;;;5074656;28;1067;-44
2022/04/20 01:16:37;;;;;;;;;;;25.40;38.50;;;;;;5075278;28;1065;-45
2022/04/20 01:19:04;;;;;;;;;;;25.30;38.90;;;;;;5075389;28;1914;-44
2022/04/20 01:21:32;;;;;;;;;;;25.40;38.40;;;;;;5074821;28;1121;-46
2022/04/20 01:23:59;;;;;;;;;;;25.40;38.30;;;;;;5075300;28;988;-43
2022/04/20 01:26:26;;;;;;;;;;;25.30;38.50;;;;;;5075838;28;1051;-45
2022/04/20 01:28:54;;;;;;;;;;;25.30;38.40;;;;;;5074628;28;1008;-43
2022/04/20 01:31:21;;;;;;;;;;;25.20;38.40;;;;;;5075885;28;987;-44
2022/04/20 01:33:47;;;;;;;;;;;25.30;38.30;;;;;;5075434;28;1928;-45
2022/04/20 01:36:14;;;;;;;;;;;25.30;38.40;;;;;;5075622;28;932;-43
2022/04/20 01:38:42;;;;;;;;;;;25.20;38.50;;;;;;5075359;28;1902;-44
2022/04/20 01:41:09;;;;;;;;;;;25.20;38.60;;;;;;5075299;28;1194;-46
2022/04/20 01:43:35;;;;;;;;;;;25.20;38.70;;;;;;5075213;28;1016;-45
2022/04/20 01:46:02;;;;;;;;;;;25.20;38.60;;;;;;5076519;28;1015;-45
2022/04/20 01:48:29;;;;;;;;;;;25.20;38.50;;;;;;5079450;28;972;-46
2022/04/20 01:53:40;;;;;;;;;;;25.20;38.60;;;;;;5078479;28;631;-44
2022/04/20 01:56:08;;;;;;;;;;;25.30;38.70;;;;;;5077744;28;1007;-44
2022/04/20 01:58:35;;;;;;;;;;;25.20;38.60;;;;;;5078289;28;1910;-44
2022/04/20 02:02:34;;;;;;;;;;;25.20;38.60;;;;;;5079849;28;981;-46
2022/04/20 02:03:48;;;;;;;;;;;25.30;38.70;;;;;;5076474;28;814;-44
2022/04/20 02:06:15;;;;;;;;;;;25.30;38.50;;;;;;5078354;28;967;-45
2022/04/20 02:08:42;;;;;;;;;;;25.30;38.50;;;;;;5078423;28;976;-44
2022/04/20 02:11:10;;;;;;;;;;;25.30;38.60;;;;;;5077429;28;954;-46
2022/04/20 02:16:50;;;;;;;;;;;25.30;38.70;;;;;;5079390;28;1083;-44
2022/04/20 02:19:17;;;;;;;;;;;25.30;38.70;;;;;;5078077;28;1969;-45
2022/04/20 02:21:45;;;;;;;;;;;25.20;38.60;;;;;;5078428;28;940;-44
2022/04/20 02:24:13;;;;;;;;;;;25.30;38.50;;;;;;5078463;28;1024;-44
2022/04/20 02:26:41;;;;;;;;;;;25.20;38.50;;;;;;5078273;28;1027;-44
2022/04/20 02:29:08;;;;;;;;;;;25.30;38.70;;;;;;5077455;28;1015;-43
2022/04/20 02:31:35;;;;;;;;;;;25.20;38.70;;;;;;5077228;28;1017;-43
2022/04/20 02:34:02;;;;;;;;;;;25.20;38.50;;;;;;5076767;28;983;-44
2022/04/20 02:36:28;;;;;;;;;;;25.30;38.60;;;;;;5076815;28;940;-44
2022/04/20 02:38:55;;;;;;;;;;;25.20;38.50;;;;;;5077140;28;1902;-45
2022/04/20 02:41:22;;;;;;;;;;;25.30;38.70;;;;;;5075936;28;992;-46
2022/04/20 02:43:50;;;;;;;;;;;25.20;38.50;;;;;;5076265;28;1006;-45
2022/04/20 02:46:17;;;;;;;;;;;25.20;38.50;;;;;;5074858;28;913;-43
2022/04/20 02:48:43;;;;;;;;;;;25.20;38.60;;;;;;5071116;28;999;-44
2022/04/20 02:51:10;;;;;;;;;;;25.20;38.50;;;;;;5073461;28;884;-46
2022/04/20 02:53:37;;;;;;;;;;;25.30;38.50;;;;;;5075272;28;1011;-46
2022/04/20 02:56:04;;;;;;;;;;;25.30;38.40;;;;;;5075673;28;1398;-45
2022/04/20 02:58:31;;;;;;;;;;;25.20;38.60;;;;;;5076302;28;1894;-44
2022/04/20 03:00:59;;;;;;;;;;;25.20;38.50;;;;;;5076773;28;908;-44
2022/04/20 03:03:26;;;;;;;;;;;25.20;38.50;;;;;;5076339;28;965;-47
2022/04/20 03:05:53;;;;;;;;;;;25.30;38.50;;;;;;5075559;28;972;-44
2022/04/20 03:08:20;;;;;;;;;;;25.20;38.50;;;;;;5077233;28;1341;-46
2022/04/20 03:10:47;;;;;;;;;;;25.30;38.60;;;;;;5077909;28;956;-44
2022/04/20 03:13:13;;;;;;;;;;;25.30;38.50;;;;;;5078242;28;1044;-52
2022/04/20 03:15:40;;;;;;;;;;;25.20;38.60;;;;;;5076171;28;940;-45
2022/04/20 03:18:09;;;;;;;;;;;25.10;38.60;;;;;;5072150;28;1910;-44
2022/04/20 03:20:35;;;;;;;;;;;25.20;38.60;;;;;;5075488;28;1027;-44
2022/04/20 03:23:02;;;;;;;;;;;25.30;38.40;;;;;;5075028;28;1152;-44
2022/04/20 03:25:29;;;;;;;;;;;25.20;38.60;;;;;;5075579;28;1063;-44
2022/04/20 03:27:56;;;;;;;;;;;25.20;38.60;;;;;;5076163;28;893;-46
2022/04/20 03:30:23;;;;;;;;;;;25.20;38.60;;;;;;5074195;28;976;-45
2022/04/20 03:32:50;;;;;;;;;;;25.10;38.60;;;;;;5075055;28;932;-44
2022/04/20 03:35:18;;;;;;;;;;;25.20;38.50;;;;;;5075099;28;889;-44
2022/04/20 03:37:45;;;;;;;;;;;25.20;38.60;;;;;;5075250;28;1977;-46
2022/04/20 03:40:12;;;;;;;;;;;25.10;38.60;;;;;;5070114;28;131335;-43
2022/04/20 03:42:39;;;;;;;;;;;25.20;38.60;;;;;;5075854;28;1511;-44
2022/04/20 03:45:06;;;;;;;;;;;25.20;39.60;;;;;;5076279;28;996;-45
2022/04/20 03:47:33;;;;;;;;;;;25.20;38.60;;;;;;5076464;28;980;-45
2022/04/20 03:49:59;;;;;;;;;;;25.20;38.60;;;;;;5075352;28;944;-44
2022/04/20 03:52:27;;;;;;;;;;;25.10;38.60;;;;;;5074924;28;964;-44
2022/04/20 03:54:54;;;;;;;;;;;25.10;38.70;;;;;;5075638;28;886;-46
2022/04/20 03:57:21;;;;;;;;;;;25.10;38.60;;;;;;5075446;28;1015;-45
2022/04/20 03:59:48;;;;;;;;;;;25.10;38.60;;;;;;5074778;28;1965;-45
2022/04/20 04:02:17;;;;;;;;;;;25.10;38.70;;;;;;5074769;28;853;-46
2022/04/20 04:04:44;;;;;;;;;;;25.20;38.60;;;;;;5074199;28;838;-44
2022/04/20 04:07:11;;;;;;;;;;;25.20;38.60;;;;;;5073335;28;935;-44
2022/04/20 04:09:39;;;;;;;;;;;25.10;38.60;;;;;;5072560;28;1766;-44
2022/04/20 04:12:06;;;;;;;;;;;25.10;38.60;;;;;;5074750;28;1000;-45
2022/04/20 04:14:37;;;;;;;;;;;25.10;38.60;;;;;;5074033;28;977;-46
2022/04/20 04:17:04;;;;;;;;;;;25.20;38.60;;;;;;5074564;28;984;-43
2022/04/20 04:19:31;;;;;;;;;;;25.20;38.50;;;;;;5076072;28;1902;-46
2022/04/20 04:21:57;;;;;;;;;;;25.20;38.50;;;;;;5074599;28;977;-44
2022/04/20 04:24:36;;;;;;;;;;;25.10;38.50;;;;;;5074990;28;1028;-45
2022/04/20 04:27:05;;;;;;;;;;;25.20;38.50;;;;;;5074692;28;934;-44
2022/04/20 04:29:32;;;;;;;;;;;25.10;38.60;;;;;;5074893;28;1328;-45
2022/04/20 04:31:59;;;;;;;;;;;25.10;38.60;;;;;;5074244;28;1033;-44
2022/04/20 04:34:26;;;;;;;;;;;25.10;38.60;;;;;;5074757;28;944;-44
2022/04/20 04:36:54;;;;;;;;;;;25.10;38.50;;;;;;5071890;28;1014;-43
2022/04/20 04:39:21;;;;;;;;;;;25.10;38.70;;;;;;5074729;28;1901;-45
2022/04/20 04:41:48;;;;;;;;;;;25.10;38.50;;;;;;5074205;28;988;-44
2022/04/20 04:44:16;;;;;;;;;;;25.10;38.60;;;;;;5073838;28;858;-45
2022/04/20 04:49:27;;;;;;;;;;;25.10;38.60;;;;;;5073644;28;681;-45
2022/04/20 04:51:54;;;;;;;;;;;25.10;38.50;;;;;;5072564;28;953;-46
2022/04/20 04:54:21;;;;;;;;;;;25.10;38.60;;;;;;5071848;28;996;-45
2022/04/20 04:56:47;;;;;;;;;;;25.00;38.70;;;;;;5071662;28;973;-45
2022/04/20 04:59:14;;;;;;;;;;;25.10;38.70;;;;;;5072110;28;1905;-44
2022/04/20 05:01:42;;;;;;;;;;;25.00;38.70;;;;;;5073064;28;963;-44
2022/04/20 05:04:09;;;;;;;;;;;25.10;38.60;;;;;;5071341;28;1008;-44
2022/04/20 05:06:36;;;;;;;;;;;25.00;38.70;;;;;;5072285;28;1071;-44
2022/04/20 05:09:03;;;;;;;;;;;25.00;38.70;;;;;;5072345;28;933;-45
2022/04/20 05:11:29;;;;;;;;;;;25.00;38.70;;;;;;5069906;28;921;-44
2022/04/20 05:13:56;;;;;;;;;;;25.00;38.70;;;;;;5069878;28;956;-45
2022/04/20 05:16:23;;;;;;;;;;;25.00;38.70;;;;;;5071390;28;953;-44
2022/04/20 05:18:52;;;;;;;;;;;25.00;38.70;;;;;;5071341;28;1905;-46
2022/04/20 05:21:19;;;;;;;;;;;25.10;38.70;;;;;;5071792;28;1007;-44
2022/04/20 05:23:46;;;;;;;;;;;25.00;38.80;;;;;;5070674;28;1257;-46
2022/04/20 05:26:12;;;;;;;;;;;25.00;38.80;;;;;;5071192;28;897;-47
2022/04/20 05:28:39;;;;;;;;;;;24.90;38.80;;;;;;5071384;28;988;-46
2022/04/20 05:31:06;;;;;;;;;;;24.90;38.80;;;;;;5072266;28;929;-43
2022/04/20 05:33:34;;;;;;;;;;;24.90;38.90;;;;;;5071734;28;1003;-43
2022/04/20 05:36:02;;;;;;;;;;;24.80;39.00;;;;;;5071298;28;1873;-44
2022/04/20 05:44:10;;;;;;;;;;;24.80;39.00;;;;;;5028479;28;788;-44
2022/04/20 05:46:36;;;;;;;;;;;24.80;39.00;;;;;;5060431;28;1033;-44
2022/04/20 05:49:04;;;;;;;;;;;24.80;39.10;;;;;;5071360;28;814;-44
2022/04/20 05:51:32;;;;;;;;;;;24.90;39.10;;;;;;5071554;28;853;-44
2022/04/20 05:53:59;;;;;;;;;;;24.90;39.10;;;;;;5070448;28;933;-43
2022/04/20 05:56:25;;;;;;;;;;;24.80;39.20;;;;;;5070920;28;996;-44
2022/04/20 05:58:52;;;;;;;;;;;24.90;39.10;;;;;;5071179;28;1898;-44
2022/04/20 06:01:19;;;;;;;;;;;24.80;39.00;;;;;;5067887;28;1020;-43
2022/04/20 06:03:46;;;;;;;;;;;24.80;39.20;;;;;;5067207;28;972;-43
2022/04/20 06:06:13;;;;;;;;;;;24.80;39.20;;;;;;5069131;28;925;-43
2022/04/20 06:08:42;;;;;;;;;;;24.80;39.10;;;;;;5069087;28;979;-43
2022/04/20 06:11:11;;;;;;;;;;;25.00;39.00;;;;;;5070372;28;924;-43
2022/04/20 06:13:37;;;;;;;;;;;24.90;39.20;;;;;;5066263;28;944;-44
2022/04/20 06:16:05;;;;;;;;;;;24.90;39.30;;;;;;5067120;28;893;-43
2022/04/20 06:18:32;;;;;;;;;;;24.80;39.20;;;;;;5067817;28;1953;-43
2022/04/20 06:20:59;;;;;;;;;;;24.80;39.20;;;;;;5069981;28;1292;-42
2022/04/20 06:23:25;;;;;;;;;;;24.80;39.30;;;;;;5068476;28;849;-43
2022/04/20 06:25:55;;;;;;;;;;;24.90;39.30;;;;;;5070456;28;1003;-43
2022/04/20 06:28:23;;;;;;;;;;;24.80;39.30;;;;;;5069265;28;996;-44
2022/04/20 06:30:50;;;;;;;;;;;24.90;39.40;;;;;;5069706;28;1125;-43
2022/04/20 06:33:17;;;;;;;;;;;24.80;39.30;;;;;;5072152;28;977;-44
2022/04/20 06:35:43;;;;;;;;;;;24.80;39.30;;;;;;5071663;28;1000;-42
2022/04/20 06:38:10;;;;;;;;;;;24.90;39.20;;;;;;5072488;28;992;-43
2022/04/20 06:40:37;;;;;;;;;;;24.90;39.40;;;;;;5073675;28;1957;-44
2022/04/20 06:43:06;;;;;;;;;;;24.90;39.30;;;;;;5073597;28;889;-42
2022/04/20 06:45:32;;;;;;;;;;;24.90;39.20;;;;;;5068100;28;1358;-44
2022/04/20 06:48:00;;;;;;;;;;;25.00;39.20;;;;;;5056354;28;1015;-43
2022/04/20 06:50:26;;;;;;;;;;;25.00;39.20;;;;;;5055809;28;1185;-42
2022/04/20 06:58:34;;;;;;;;;;;25.00;39.10;;;;;;5051614;28;630;-43
2022/04/20 07:01:01;;;;;;;;;;;25.10;39.20;;;;;;5050726;28;1906;-43
2022/04/20 07:03:28;;;;;;;;;;;25.00;39.10;;;;;;5051150;28;999;-43
2022/04/20 07:05:55;;;;;;;;;;;25.00;39.10;;;;;;5049922;28;1148;-42
2022/04/20 07:08:22;;;;;;;;;;;25.00;39.10;;;;;;5050507;28;831;-43
2022/04/20 07:10:49;;;;;;;;;;;25.00;39.10;;;;;;5052221;28;1154;-42
2022/04/20 07:13:16;;;;;;;;;;;25.00;39.10;;;;;;5051168;28;948;-42
2022/04/20 07:15:45;;;;;;;;;;;25.10;39.20;;;;;;5052002;28;1026;-43
2022/04/20 07:18:12;;;;;;;;;;;25.10;39.20;;;;;;5050989;28;916;-42
2022/04/20 07:20:39;;;;;;;;;;;25.10;39.20;;;;;;5050988;28;1897;-43
2022/04/20 07:23:06;;;;;;;;;;;25.10;39.20;;;;;;5050127;28;948;-43
2022/04/20 07:25:32;;;;;;;;;;;25.10;39.10;;;;;;5048708;28;897;-43
2022/04/20 07:27:59;;;;;;;;;;;25.10;40.20;;;;;;5048812;28;992;-42
2022/04/20 07:30:26;;;;;;;;;;;25.10;39.10;;;;;;5049746;28;1134;-43
2022/04/20 07:32:54;;;;;;;;;;;25.10;39.10;;;;;;5051172;28;946;-43
2022/04/20 07:35:21;;;;;;;;;;;25.10;39.10;;;;;;5049299;28;1079;-43
2022/04/20 07:37:48;;;;;;;;;;;25.10;39.10;;;;;;5051038;28;861;-44
2022/04/20 07:40:15;;;;;;;;;;;25.10;39.10;;;;;;5050525;28;1983;-43
2022/04/20 07:42:42;;;;;;;;;;;25.10;39.20;;;;;;5054694;28;1310;-42
2022/04/20 07:45:10;;;;;;;;;;;25.10;39.10;;;;;;5069042;28;1020;-43
2022/04/20 07:47:37;;;;;;;;;;;25.20;39.20;;;;;;5069605;28;1010;-43
2022/04/20 07:50:23;;;;;;;;;;;25.10;39.20;;;;;;5068659;28;1094;-43
2022/04/20 07:52:51;;;;;;;;;;;25.10;39.20;;;;;;5070248;28;910;-42
2022/04/20 07:55:19;;;;;;;;;;;25.20;39.30;;;;;;5069036;28;985;-42
2022/04/20 07:57:45;;;;;;;;;;;25.10;39.20;;;;;;5069299;28;830;-42
2022/04/20 08:00:13;;;;;;;;;;;25.10;39.20;;;;;;5069426;28;1973;-42
2022/04/20 08:02:40;;;;;;;;;;;25.10;39.20;;;;;;5069096;28;866;-42
2022/04/20 08:05:09;;;;;;;;;;;25.20;39.20;;;;;;5069805;28;933;-42
2022/04/20 08:07:36;;;;;;;;;;;25.10;39.20;;;;;;5070044;28;1016;-42
2022/04/20 08:10:03;;;;;;;;;;;25.10;39.20;;;;;;5070066;28;1017;-43
2022/04/20 08:12:34;;;;;;;;;;;25.20;39.20;;;;;;5070251;28;1023;-42
2022/04/20 08:15:01;;;;;;;;;;;25.10;39.20;;;;;;5069997;28;1008;-41
2022/04/20 08:17:28;;;;;;;;;;;25.10;39.30;;;;;;5070326;28;878;-42
2022/04/20 08:19:55;;;;;;;;;;;25.10;39.30;;;;;;5070009;28;1977;-43
2022/04/20 08:22:24;;;;;;;;;;;25.10;39.20;;;;;;5070753;28;873;-43
2022/04/20 08:24:51;;;;;;;;;;;25.10;39.30;;;;;;5069558;28;987;-42
2022/04/20 08:27:19;;;;;;;;;;;25.10;39.30;;;;;;5070809;28;865;-43
2022/04/20 08:29:47;;;;;;;;;;;25.10;40.30;;;;;;5068465;28;924;-43
2022/04/20 08:32:15;;;;;;;;;;;25.10;39.30;;;;;;5069279;28;1224;-44
2022/04/20 08:34:42;;;;;;;;;;;25.10;39.40;;;;;;5068261;28;1017;-43
2022/04/20 08:37:09;;;;;;;;;;;25.00;39.40;;;;;;5065516;28;948;-43
2022/04/20 08:39:37;;;;;;;;;;;25.10;39.40;;;;;;5067443;28;1955;-43
2022/04/20 08:42:05;;;;;;;;;;;25.10;39.40;;;;;;5068152;28;865;-44
2022/04/20 08:44:35;;;;;;;;;;;25.10;39.10;;;;;;5067294;28;1047;-43
2022/04/20 08:47:02;;;;;;;;;;;25.10;39.40;;;;;;5068277;28;1001;-43
2022/04/20 08:49:29;;;;;;;;;;;25.10;39.50;;;;;;5069438;28;1417;-42
2022/04/20 08:54:41;;;;;;;;;;;25.00;39.40;;;;;;5068033;28;908;-43
2022/04/20 08:57:18;;;;;;;;;;;25.20;39.20;;;;;;5069216;28;980;-43
2022/04/20 08:59:45;;;;;;;;;;;25.20;39.20;;;;;;5068742;28;1905;-43
2022/04/20 09:02:12;;;;;;;;;;;25.10;39.30;;;;;;5064980;28;869;-42
2022/04/20 09:04:39;;;;;;;;;;;25.10;39.50;;;;;;5066405;28;991;-42
2022/04/20 09:07:07;;;;;;;;;;;25.10;39.70;;;;;;5067377;28;943;-43
2022/04/20 09:09:34;;;;;;;;;;;25.10;39.70;;;;;;5067224;28;975;-43
2022/04/20 09:12:03;;;;;;;;;;;25.00;39.70;;;;;;5068476;28;992;-43
2022/04/20 09:14:30;;;;;;;;;;;25.00;39.80;;;;;;5067664;28;1131;-44
2022/04/20 09:16:57;;;;;;;;;;;25.00;39.80;;;;;;5069032;28;928;-43
2022/04/20 09:19:25;;;;;;;;;;;25.00;39.70;;;;;;5068690;28;1072;-42
2022/04/20 09:21:51;;;;;;;;;;;25.00;39.80;;;;;;5067326;28;1992;-43
2022/04/20 09:24:18;;;;;;;;;;;25.00;39.70;;;;;;5069037;28;1027;-45
2022/04/20 09:26:52;;;;;;;;;;;25.00;39.50;;;;;;5067825;28;1005;-42
2022/04/20 09:29:21;;;;;;;;;;;25.00;39.70;;;;;;5062079;28;955;-43
2022/04/20 09:31:48;;;;;;;;;;;25.00;39.60;;;;;;5066048;28;988;-43
2022/04/20 09:34:30;;;;;;;;;;;25.00;39.60;;;;;;5067934;28;987;-47
2022/04/20 09:36:57;;;;;;;;;;;25.10;39.60;;;;;;5068114;28;1550;-47
2022/04/20 09:39:25;;;;;;;;;;;25.10;39.70;;;;;;5062796;28;1006;-49
2022/04/20 09:41:58;;;;;;;;;;;25.00;39.60;;;;;;5067657;28;1914;-49
2022/04/20 09:44:27;;;;;;;;;;;25.00;39.60;;;;;;5067557;28;979;-51
2022/04/20 09:49:51;;;;;;;;;;;25.10;39.60;;;;;;5066491;28;901;-49
2022/04/20 09:52:18;;;;;;;;;;;25.00;39.60;;;;;;5066200;28;1022;-49
2022/04/20 09:54:49;;;;;;;;;;;25.00;39.40;;;;;;5066478;28;997;-49
2022/04/20 09:57:16;;;;;;;;;;;25.10;39.70;;;;;;5066277;28;1042;-49
2022/04/20 09:59:55;;;;;;;;;;;25.10;39.50;;;;;;5066290;28;1914;-49
2022/04/20 10:02:22;;;;;;;;;;;25.00;39.60;;;;;;5065671;28;1117;-48
2022/04/20 10:04:49;;;;;;;;;;;25.00;39.80;;;;;;5066154;28;1001;-48
2022/04/20 10:07:16;;;;;;;;;;;25.00;39.80;;;;;;5067037;28;945;-50
2022/04/20 10:09:45;;;;;;;;;;;25.00;39.80;;;;;;5069804;28;1014;-48
2022/04/20 10:12:12;;;;;;;;;;;25.00;39.80;;;;;;5071374;28;1036;-49
2022/04/20 10:17:27;;;;;;;;;;;25.10;39.70;;;;;;5072380;28;686;-47
2022/04/20 10:19:54;;;;;;;;;;;25.00;39.80;;;;;;5070796;28;1976;-48
2022/04/20 10:22:21;;;;;;;;;;;25.10;39.70;;;;;;5072268;28;854;-50
2022/04/20 10:24:51;;;;;;;;;;;25.10;39.70;;;;;;5070701;28;1119;-48
2022/04/20 10:27:22;;;;;;;;;;;25.00;39.70;;;;;;5073268;28;953;-50
2022/04/20 10:29:53;;;;;;;;;;;25.00;39.70;;;;;;5071784;28;1008;-49
2022/04/20 10:32:23;;;;;;;;;;;25.20;39.70;;;;;;5071930;28;966;-46
2022/04/20 10:34:51;;;;;;;;;;;25.20;39.30;;;;;;5071100;28;1003;-42
2022/04/20 10:37:21;;;;;;;;;;;25.40;40.00;;;;;;5070571;28;853;-49
2022/04/20 10:39:47;;;;;;;;;;;25.40;39.30;;;;;;5070059;28;1217;-47
2022/04/20 10:42:21;;;;;;;;;;;25.40;39.40;;;;;;5071785;28;1911;-50
2022/04/20 10:44:52;;;;;;;;;;;25.40;39.50;;;;;;5070502;28;1015;-47
2022/04/20 10:47:20;;;;;;;;;;;25.40;40.50;;;;;;5070508;28;2001;-46
2022/04/20 10:49:47;;;;;;;;;;;25.40;39.40;;;;;;5070470;28;973;-47
2022/04/20 10:52:24;;;;;;;;;;;25.40;39.40;;;;;;5067623;28;1013;-46
2022/04/20 10:54:52;;;;;;;;;;;25.40;39.40;;;;;;5066573;28;897;-47
2022/04/20 10:57:19;;;;;;;;;;;25.40;39.40;;;;;;5068819;28;1009;-46
2022/04/20 11:00:05;;;;;;;;;;;25.50;39.50;;;;;;5067296;28;874;-45
2022/04/20 11:02:47;;;;;;;;;;;25.50;39.50;;;;;;5069308;28;971;-46
2022/04/20 11:05:15;;;;;;;;;;;25.50;39.40;;;;;;5067080;28;1262;-45
2022/04/20 11:07:56;;;;;;;;;;;25.50;39.60;;;;;;5068295;28;1020;-40
2022/04/20 11:10:25;;;;;;;;;;;25.50;39.70;;;;;;5069259;28;1168;-41
2022/04/20 11:18:40;;;;;;;;;;;25.50;39.50;;;;;;5068457;28;611;-40
2022/04/20 11:21:10;;;;;;;;;;;25.40;39.40;;;;;;5069842;28;1893;-41
2022/04/20 11:24:05;;;;;;;;;;;25.40;39.40;;;;;;5070087;28;988;-41
2022/04/20 11:26:35;;;;;;;;;;;25.40;39.50;;;;;;5022271;28;1375;-40
2022/04/20 11:29:03;;;;;;;;;;;25.40;39.60;;;;;;5071606;28;1028;-40
2022/04/20 11:31:37;;;;;;;;;;;25.40;39.50;;;;;;5071743;28;1578;-40
2022/04/20 11:34:05;;;;;;;;;;;25.40;39.50;;;;;;5070035;28;1017;-40
2022/04/20 11:36:32;;;;;;;;;;;25.40;39.60;;;;;;5069566;28;1000;-40
2022/04/20 11:39:01;;;;;;;;;;;25.40;39.40;;;;;;5070117;28;1162;-40
2022/04/20 11:41:28;;;;;;;;;;;25.40;39.40;;;;;;5071148;28;1921;-40
2022/04/20 11:43:59;;;;;;;;;;;25.40;39.40;;;;;;5071022;28;2105;-37
2022/04/20 11:46:27;;;;;;;;;;;25.50;39.40;;;;;;5070231;28;868;-37
2022/04/20 11:48:55;;;;;;;;;;;25.60;39.60;;;;;;5069968;28;900;-36
2022/04/20 11:51:23;;;;;;;;;;;25.50;39.40;;;;;;5069861;28;892;-37
2022/04/20 11:53:50;;;;;;;;;;;25.50;39.20;;;;;;5070421;28;1005;-37
2022/04/20 11:56:17;;;;;;;;;;;25.50;39.00;;;;;;5069850;28;1004;-36
2022/04/20 11:58:51;;;;;;;;;;;25.60;38.90;;;;;;5069211;28;982;-36
2022/04/20 12:01:23;;;;;;;;;;;25.50;38.70;;;;;;5068817;28;1987;-38
2022/04/20 12:03:51;;;;;;;;;;;25.50;38.80;;;;;;5068990;28;988;-36
2022/04/20 12:06:19;;;;;;;;;;;25.50;38.80;;;;;;5069226;28;873;-36
2022/04/20 12:08:47;;;;;;;;;;;25.40;38.90;;;;;;5069297;28;1072;-36
2022/04/20 12:11:15;;;;;;;;;;;25.50;38.90;;;;;;5068998;28;982;-37
2022/04/20 12:13:42;;;;;;;;;;;25.50;39.00;;;;;;5070545;28;877;-37
2022/04/20 12:16:11;;;;;;;;;;;25.40;39.10;;;;;;5069049;28;853;-37
2022/04/20 12:18:40;;;;;;;;;;;25.40;39.10;;;;;;5068519;28;929;-37
2022/04/20 12:21:08;;;;;;;;;;;25.50;38.80;;;;;;5066360;28;1985;-37
2022/04/20 12:23:36;;;;;;;;;;;25.40;38.50;;;;;;5069909;28;926;-41
2022/04/20 12:26:06;;;;;;;;;;;25.60;38.40;;;;;;5068331;28;929;-37
2022/04/20 12:28:36;;;;;;;;;;;25.60;38.30;;;;;;5069042;28;952;-37
2022/04/20 12:31:03;;;;;;;;;;;25.50;38.20;;;;;;5067989;28;1860;-37
2022/04/20 12:33:31;;;;;;;;;;;25.50;38.20;;;;;;5070345;28;1021;-37
2022/04/20 12:36:02;;;;;;;;;;;25.50;38.10;;;;;;5070498;28;1065;-36
2022/04/20 12:38:31;;;;;;;;;;;25.50;38.10;;;;;;5069606;28;1592;-37
2022/04/20 12:41:00;;;;;;;;;;;25.60;38.00;;;;;;5068240;28;1910;-40
2022/04/20 12:43:33;;;;;;;;;;;25.60;37.80;;;;;;5067811;28;1007;-40
2022/04/20 12:46:12;;;;;;;;;;;25.50;37.80;;;;;;5068106;28;814;-39
2022/04/20 12:48:42;;;;;;;;;;;25.50;37.80;;;;;;5069049;28;932;-39
2022/04/20 12:51:23;;;;;;;;;;;25.60;37.80;;;;;;5068106;28;1068;-40
2022/04/20 12:53:50;;;;;;;;;;;25.60;37.60;;;;;;5069289;28;1156;-40
2022/04/20 13:02:04;;;;;;;;;;;25.50;37.40;;;;;;5070649;28;1996;-43
2022/04/20 13:04:32;;;;;;;;;;;25.50;37.80;;;;;;5069914;28;1020;-43
2022/04/20 13:07:01;;;;;;;;;;;25.60;37.80;;;;;;5069557;28;1008;-44
2022/04/20 13:09:28;;;;;;;;;;;25.60;37.60;;;;;;5067617;28;982;-42
2022/04/20 13:11:56;;;;;;;;;;;25.50;37.50;;;;;;5068052;28;932;-44
2022/04/20 13:14:23;;;;;;;;;;;25.50;37.60;;;;;;5066920;28;1549;-42
2022/04/20 13:16:49;;;;;;;;;;;25.60;37.80;;;;;;5067808;28;889;-40
2022/04/20 13:19:16;;;;;;;;;;;25.60;37.70;;;;;;5068439;28;1786;-39
2022/04/20 13:21:45;;;;;;;;;;;25.60;37.70;;;;;;5069263;28;1930;-36
2022/04/20 13:27:53;;;;;;;;;;;25.50;37.80;;;;;;5070124;28;882;-36
2022/04/20 13:29:47;;;;;;;;;;;25.80;37.50;;;;;;5041853;28;1083;-41
2022/04/20 13:32:15;;;;;;;;;;;25.70;37.60;;;;;;5068505;28;948;-40
2022/04/20 13:34:42;;;;;;;;;;;25.70;37.60;;;;;;5069164;28;975;-41
2022/04/20 13:37:13;;;;;;;;;;;25.60;37.80;;;;;;5069720;28;884;-35
2022/04/20 13:39:41;;;;;;;;;;;25.50;38.10;;;;;;5068887;28;1010;-35
2022/04/20 13:42:08;;;;;;;;;;;25.50;38.20;;;;;;5071234;28;1984;-36
2022/04/20 13:44:35;;;;;;;;;;;25.50;38.50;;;;;;5072518;28;1164;-36
2022/04/20 13:47:03;;;;;;;;;;;25.60;38.30;;;;;;5072531;28;1086;-36
2022/04/20 13:49:30;;;;;;;;;;;25.70;38.30;;;;;;5073055;28;888;-36
2022/04/20 13:51:57;;;;;;;;;;;25.80;38.20;;;;;;5069842;28;1307;-34
2022/04/20 13:54:24;;;;;;;;;;;25.80;38.10;;;;;;5072626;28;956;-36
2022/04/20 13:56:52;;;;;;;;;;;25.80;38.00;;;;;;5071708;28;1000;-36
2022/04/20 13:59:20;;;;;;;;;;;25.80;38.00;;;;;;5071781;28;1534;-35
2022/04/20 14:01:47;;;;;;;;;;;25.90;38.10;;;;;;5072684;28;1989;-35
2022/04/20 14:04:15;;;;;;;;;;;25.90;38.10;;;;;;5071281;28;969;-35
2022/04/20 14:06:42;;;;;;;;;;;25.90;38.20;;;;;;5069419;28;953;-35
2022/04/20 14:09:09;;;;;;;;;;;26.00;38.10;;;;;;5069937;28;1008;-35
2022/04/20 14:11:36;;;;;;;;;;;26.00;38.10;;;;;;5071044;28;1492;-34
2022/04/20 14:14:05;;;;;;;;;;;26.10;38.20;;;;;;5071741;28;1005;-35
2022/04/20 14:16:32;;;;;;;;;;;26.10;38.20;;;;;;5072347;28;932;-35
2022/04/20 14:19:00;;;;;;;;;;;26.10;38.00;;;;;;5070235;28;982;-35
2022/04/20 14:21:27;;;;;;;;;;;26.20;38.10;;;;;;5071383;28;1918;-35
2022/04/20 14:23:55;;;;;;;;;;;26.20;38.00;;;;;;5070643;28;933;-34
2022/04/20 14:34:37;;;;;;;;;;;26.20;38.10;;;;;;5071243;28;928;-34
2022/04/20 14:37:04;;;;;;;;;;;26.40;37.90;;;;;;5071980;28;1032;-35
2022/04/20 14:39:31;;;;;;;;;;;26.40;38.00;;;;;;5069604;28;1056;-35
2022/04/20 14:41:58;;;;;;;;;;;26.40;37.90;;;;;;5069800;28;1962;-36
2022/04/20 14:44:27;;;;;;;;;;;26.40;38.00;;;;;;5069646;28;980;-35
2022/04/20 14:46:54;;;;;;;;;;;26.40;38.10;;;;;;5071150;28;1009;-35
2022/04/20 14:49:21;;;;;;;;;;;26.40;38.00;;;;;;5069597;28;870;-35
2022/04/20 14:51:48;;;;;;;;;;;26.40;38.10;;;;;;5070515;28;1019;-35
2022/04/20 14:54:16;;;;;;;;;;;26.40;38.10;;;;;;5070131;28;989;-39
2022/04/20 14:56:43;;;;;;;;;;;26.50;38.10;;;;;;5070973;28;944;-40
2022/04/20 14:59:10;;;;;;;;;;;26.50;38.10;;;;;;5070260;28;1003;-40
2022/04/20 15:01:39;;;;;;;;;;;26.50;38.10;;;;;;5069608;28;1917;-40
2022/04/20 15:04:06;;;;;;;;;;;26.50;38.00;;;;;;5069723;28;1032;-40
2022/04/20 15:06:33;;;;;;;;;;;26.50;38.00;;;;;;5069955;28;918;-40
2022/04/20 15:09:00;;;;;;;;;;;26.60;38.10;;;;;;5070227;28;2071;-40
2022/04/20 15:11:27;;;;;;;;;;;26.60;38.00;;;;;;5070692;28;1012;-40
2022/04/20 15:13:55;;;;;;;;;;;26.60;38.00;;;;;;5070214;28;1040;-40
2022/04/20 15:16:22;;;;;;;;;;;26.50;38.20;;;;;;5069309;28;1000;-40
2022/04/20 15:18:54;;;;;;;;;;;26.60;38.30;;;;;;5068258;28;1608;-39
2022/04/20 15:21:24;;;;;;;;;;;26.70;38.20;;;;;;5068864;28;1989;-40
2022/04/20 15:23:51;;;;;;;;;;;26.70;38.20;;;;;;5066667;28;1110;-40
2022/04/20 15:26:18;;;;;;;;;;;26.70;38.10;;;;;;5067597;28;1040;-39
2022/04/20 15:28:45;;;;;;;;;;;26.70;38.10;;;;;;5068816;28;893;-40
2022/04/20 15:31:15;;;;;;;;;;;26.70;38.20;;;;;;5066352;28;1758;-39